createdAt,value
2022-10-13T00:01:54.512Z,14.57
2022-10-13T00:04:21.359Z,18.47
2022-10-13T00:06:48.182Z,19.70
2022-10-13T00:09:15.030Z,15.73
2022-10-13T00:11:41.910Z,21.47
2022-10-13T00:14:08.833Z,24.80
2022-10-13T00:16:36.164Z,25.80
2022-10-13T00:19:03.179Z,23.03
2022-10-13T00:21:30.081Z,19.23
2022-10-13T00:23:57.217Z,20.97
2022-10-13T00:26:25.779Z,17.47
2022-10-13T00:28:53.300Z,15.70
2022-10-13T00:31:23.378Z,24.33
2022-10-13T00:33:50.597Z,17.67
2022-10-13T00:36:17.830Z,14.97
2022-10-13T00:38:44.932Z,15.23
2022-10-13T00:41:12.102Z,14.87
2022-10-13T00:43:50.208Z,13.63
2022-10-13T00:46:17.124Z,13.97
2022-10-13T00:48:46.655Z,13.17
2022-10-13T00:51:16.256Z,13.60
2022-10-13T00:53:44.932Z,14.73
2022-10-13T00:56:15.164Z,15.37
2022-10-13T00:58:44.045Z,12.33
2022-10-13T01:01:11.288Z,18.93
2022-10-13T01:03:39.004Z,16.03
2022-10-13T01:06:07.246Z,13.97
2022-10-13T01:08:34.558Z,13.30
2022-10-13T01:11:24.922Z,14.80
2022-10-13T01:14:12.553Z,16.63
2022-10-13T01:17:15.387Z,15.23
2022-10-13T01:20:11.708Z,20.67
2022-10-13T01:22:48.056Z,22.53
2022-10-13T01:25:26.442Z,16.83
2022-10-13T01:28:05.499Z,14.00
2022-10-13T01:30:45.751Z,16.20
2022-10-13T01:33:24.859Z,12.67
2022-10-13T01:36:00.009Z,12.73
2022-10-13T01:38:49.022Z,12.83
2022-10-13T01:41:44.289Z,14.27
2022-10-13T01:44:12.946Z,14.90
2022-10-13T01:46:40.920Z,12.80
2022-10-13T01:49:12.258Z,14.73
2022-10-13T01:51:40.860Z,18.03
2022-10-13T01:54:07.628Z,16.67
2022-10-13T01:56:34.469Z,13.90
2022-10-13T01:59:05.732Z,14.23
2022-10-13T02:01:49.661Z,14.90
2022-10-13T02:04:44.149Z,11.60
2022-10-13T02:07:14.022Z,12.73
2022-10-13T02:09:48.602Z,13.73
2022-10-13T02:12:33.651Z,14.30
2022-10-13T02:15:01.434Z,11.93
2022-10-13T02:17:29.207Z,15.13
2022-10-13T02:19:57.248Z,13.23
2022-10-13T02:22:32.338Z,15.70
2022-10-13T02:24:59.089Z,13.23
2022-10-13T02:27:26.664Z,15.73
2022-10-13T02:29:56.380Z,12.80
2022-10-13T02:32:23.656Z,14.37
2022-10-13T02:34:51.084Z,12.90
2022-10-13T02:37:18.177Z,17.77
2022-10-13T02:39:44.950Z,12.63
2022-10-13T02:42:12.035Z,13.70
2022-10-13T02:44:40.151Z,15.40
2022-10-13T02:47:06.991Z,13.67
2022-10-13T02:49:33.783Z,16.03
2022-10-13T02:52:00.600Z,20.07
2022-10-13T02:54:27.454Z,23.63
2022-10-13T02:56:54.607Z,22.90
2022-10-13T02:59:21.334Z,20.10
2022-10-13T03:01:48.129Z,23.63
2022-10-13T03:04:14.993Z,17.47
2022-10-13T03:06:41.727Z,22.47
2022-10-13T03:09:08.570Z,26.93
2022-10-13T03:11:35.446Z,25.33
2022-10-13T03:14:02.265Z,30.47
2022-10-13T03:16:29.162Z,24.00
2022-10-13T03:18:56.130Z,25.70
2022-10-13T03:21:23.077Z,26.00
2022-10-13T03:23:49.921Z,25.47
2022-10-13T03:26:16.835Z,28.37
2022-10-13T03:28:43.791Z,27.77
2022-10-13T03:31:11.934Z,17.03
2022-10-13T03:33:41.102Z,13.30
2022-10-13T03:36:08.222Z,18.30
2022-10-13T03:38:35.584Z,16.53
2022-10-13T03:41:07.356Z,18.43
2022-10-13T03:43:34.796Z,16.33
2022-10-13T03:46:04.068Z,23.80
2022-10-13T03:48:31.530Z,21.07
2022-10-13T03:50:58.402Z,14.90
2022-10-13T03:53:25.739Z,18.27
2022-10-13T03:55:54.120Z,17.60
2022-10-13T03:58:23.696Z,18.40
2022-10-13T04:00:51.560Z,13.47
2022-10-13T04:03:18.357Z,17.50
2022-10-13T04:05:45.105Z,18.67
2022-10-13T04:08:12.579Z,16.70
2022-10-13T04:10:39.763Z,16.63
2022-10-13T04:13:06.680Z,18.63
2022-10-13T04:15:38.028Z,16.57
2022-10-13T04:18:05.930Z,17.37
2022-10-13T04:20:36.704Z,23.00
2022-10-13T04:23:03.510Z,17.57
2022-10-13T04:25:30.319Z,17.40
2022-10-13T04:27:57.083Z,16.30
2022-10-13T04:30:23.847Z,20.37
2022-10-13T04:32:50.598Z,17.60
2022-10-13T04:35:17.560Z,17.77
2022-10-13T04:37:45.320Z,24.87
2022-10-13T04:40:12.404Z,17.40
2022-10-13T04:42:39.118Z,16.27
2022-10-13T04:45:06.598Z,17.63
2022-10-13T04:47:37.107Z,19.30
2022-10-13T04:50:04.431Z,32.10
2022-10-13T04:52:31.235Z,14.70
2022-10-13T04:54:58.042Z,16.00
2022-10-13T04:57:24.911Z,14.93
2022-10-13T04:59:51.678Z,17.13
2022-10-13T05:02:18.958Z,17.80
2022-10-13T05:04:46.102Z,14.97
2022-10-13T05:07:17.857Z,17.87
2022-10-13T05:09:45.331Z,14.70
2022-10-13T05:12:12.122Z,19.27
2022-10-13T05:14:38.963Z,13.53
2022-10-13T05:17:05.716Z,18.77
2022-10-13T05:19:32.485Z,21.90
2022-10-13T05:21:59.373Z,16.03
2022-10-13T05:24:36.415Z,18.60
2022-10-13T05:27:11.694Z,19.47
2022-10-13T05:29:39.374Z,17.47
2022-10-13T05:32:07.451Z,17.80
2022-10-13T05:34:34.276Z,18.17
2022-10-13T05:37:01.338Z,24.47
2022-10-13T05:39:28.174Z,16.80
2022-10-13T05:41:55.348Z,18.43
2022-10-13T05:44:22.330Z,16.00
2022-10-13T05:46:49.808Z,15.20
2022-10-13T05:49:16.974Z,17.57
2022-10-13T05:51:47.748Z,15.70
2022-10-13T05:54:20.412Z,16.03
2022-10-13T05:56:55.133Z,16.47
2022-10-13T05:59:26.951Z,19.23
2022-10-13T06:01:55.104Z,16.03
2022-10-13T06:04:30.587Z,18.93
2022-10-13T06:06:57.659Z,16.00
2022-10-13T06:09:24.429Z,17.43
2022-10-13T06:11:51.176Z,24.23
2022-10-13T06:14:17.984Z,21.90
2022-10-13T06:16:44.839Z,21.73
2022-10-13T06:19:12.281Z,20.37
2022-10-13T06:21:39.545Z,19.73
2022-10-13T06:24:06.900Z,21.70
2022-10-13T06:26:33.766Z,19.53
2022-10-13T06:29:01.622Z,21.60
2022-10-13T06:31:28.871Z,36.70
2022-10-13T06:33:55.694Z,29.43
2022-10-13T06:36:22.495Z,25.13
2022-10-13T06:38:49.546Z,20.93
2022-10-13T06:41:16.447Z,20.40
2022-10-13T06:43:43.847Z,24.37
2022-10-13T06:46:11.825Z,17.53
2022-10-13T06:48:39.179Z,19.07
2022-10-13T06:51:08.989Z,20.93
2022-10-13T06:53:36.390Z,23.43
2022-10-13T06:56:05.638Z,23.07
2022-10-13T06:58:32.614Z,19.83
2022-10-13T07:00:59.873Z,18.80
2022-10-13T07:03:29.753Z,20.70
2022-10-13T07:06:05.083Z,18.97
2022-10-13T07:08:33.041Z,22.00
2022-10-13T07:11:00.106Z,26.00
2022-10-13T07:13:27.538Z,23.30
2022-10-13T07:15:54.411Z,21.73
2022-10-13T07:18:21.240Z,19.07
2022-10-13T07:20:51.124Z,26.43
2022-10-13T07:23:17.930Z,24.90
2022-10-13T07:25:44.833Z,25.23
2022-10-13T07:28:11.762Z,23.33
2022-10-13T07:30:40.147Z,23.13
2022-10-13T07:33:07.152Z,26.27
2022-10-13T07:35:34.584Z,21.80
2022-10-13T07:38:01.488Z,25.00
2022-10-13T07:40:28.474Z,29.57
2022-10-13T07:42:57.324Z,25.50
2022-10-13T07:45:24.990Z,30.57
2022-10-13T07:47:52.289Z,28.30
2022-10-13T07:50:21.746Z,27.50
2022-10-13T07:52:48.626Z,28.53
2022-10-13T07:55:15.569Z,22.70
2022-10-13T07:57:42.431Z,22.73
2022-10-13T08:00:10.493Z,23.40
2022-10-13T08:02:37.465Z,19.53
2022-10-13T08:05:04.933Z,21.57
2022-10-13T08:07:31.767Z,19.67
2022-10-13T08:09:58.744Z,20.33
2022-10-13T08:12:25.643Z,20.67
2022-10-13T08:14:52.629Z,25.03
2022-10-13T08:17:19.641Z,27.90
2022-10-13T08:19:46.890Z,19.40
2022-10-13T08:22:14.400Z,21.27
2022-10-13T08:24:41.162Z,19.13
2022-10-13T08:27:11.650Z,18.40
2022-10-13T08:29:38.592Z,24.03
2022-10-13T08:32:05.569Z,19.67
2022-10-13T08:34:36.141Z,19.57
2022-10-13T08:37:03.447Z,19.80
2022-10-13T08:39:31.795Z,20.60
2022-10-13T08:41:58.877Z,15.97
2022-10-13T08:47:42.793Z,15.53
2022-10-13T08:50:21.193Z,22.23
2022-10-13T08:52:59.914Z,17.13
2022-10-13T08:55:41.439Z,17.73
2022-10-13T08:58:33.652Z,23.47
2022-10-13T09:01:09.675Z,22.03
2022-10-13T09:03:54.543Z,21.70
2022-10-13T09:06:28.721Z,17.83
2022-10-13T09:09:05.252Z,14.20
2022-10-13T09:11:47.669Z,18.47
2022-10-13T09:14:31.537Z,18.63
2022-10-13T09:19:57.067Z,18.40
2022-10-13T09:22:27.738Z,23.27
2022-10-13T09:25:06.637Z,22.13
2022-10-13T09:27:50.830Z,21.60
2022-10-13T09:30:39.736Z,16.73
2022-10-13T09:33:24.361Z,15.87
2022-10-13T09:35:57.251Z,19.00
2022-10-13T09:38:26.136Z,17.77
2022-10-13T09:41:04.030Z,19.50
2022-10-13T09:43:47.686Z,19.27
2022-10-13T09:46:31.570Z,17.17
2022-10-13T09:49:25.487Z,16.77
2022-10-13T09:51:52.858Z,16.93
2022-10-13T09:54:40.027Z,18.40
2022-10-13T09:57:16.276Z,17.23
2022-10-13T10:02:51.301Z,17.03
2022-10-13T10:05:23.861Z,15.13
2022-10-13T10:07:51.189Z,15.97
2022-10-13T10:10:34.552Z,16.20
2022-10-13T10:13:02.254Z,13.23
2022-10-13T10:15:53.127Z,14.07
2022-10-13T10:19:03.699Z,14.37
2022-10-13T10:21:50.065Z,20.10
2022-10-13T10:24:28.733Z,18.43
2022-10-13T10:29:56.223Z,15.30
2022-10-13T10:32:50.719Z,11.47
2022-10-13T10:35:48.293Z,12.97
2022-10-13T10:38:38.306Z,17.60
2022-10-13T10:41:26.615Z,14.67
2022-10-13T10:43:59.873Z,10.10
2022-10-13T10:46:31.172Z,10.97
2022-10-13T10:49:02.712Z,14.17
2022-10-13T10:51:36.901Z,12.00
2022-10-13T10:54:19.126Z,15.03
2022-10-13T10:57:14.810Z,13.00
2022-10-13T10:59:53.894Z,10.90
2022-10-13T11:03:11.982Z,11.10
2022-10-13T11:06:19.365Z,10.90
2022-10-13T11:08:48.071Z,9.73
2022-10-13T11:11:44.177Z,12.53
2022-10-13T11:14:11.039Z,10.23
2022-10-13T11:17:01.244Z,11.47
2022-10-13T11:19:34.773Z,11.67
2022-10-13T11:22:01.508Z,10.47
2022-10-13T11:24:46.463Z,11.37
2022-10-13T11:27:16.035Z,10.63
2022-10-13T11:29:57.999Z,10.73
2022-10-13T11:32:28.104Z,10.53
2022-10-13T11:35:06.996Z,9.83
2022-10-13T11:38:09.281Z,9.97
2022-10-13T11:41:18.502Z,13.20
2022-10-13T11:44:03.912Z,15.40
2022-10-13T11:46:56.830Z,10.40
2022-10-13T11:49:48.133Z,10.83
2022-10-13T11:52:48.596Z,10.40
2022-10-13T11:55:19.447Z,11.13
2022-10-13T11:57:46.277Z,14.27
2022-10-13T12:00:18.289Z,13.30
2022-10-13T12:02:53.771Z,8.57
2022-10-13T12:05:24.313Z,9.87
2022-10-13T12:07:54.495Z,10.10
2022-10-13T12:10:30.916Z,13.03
2022-10-13T12:12:59.219Z,12.10
2022-10-13T12:15:40.532Z,7.40
2022-10-13T12:18:27.622Z,7.87
2022-10-13T12:20:56.940Z,10.73
2022-10-13T12:23:23.847Z,8.97
2022-10-13T12:25:57.290Z,9.87
2022-10-13T12:28:52.019Z,9.87
2022-10-13T12:31:25.406Z,7.50
2022-10-13T12:34:00.445Z,13.53
2022-10-13T12:36:31.299Z,7.53
2022-10-13T12:39:13.455Z,8.80
2022-10-13T12:41:46.118Z,9.03
2022-10-13T12:44:31.530Z,9.50
2022-10-13T12:47:02.027Z,14.17
2022-10-13T12:49:31.580Z,9.40
2022-10-13T12:52:27.818Z,8.63
2022-10-13T12:54:56.148Z,12.23
2022-10-13T12:57:36.063Z,8.60
2022-10-13T13:00:20.242Z,10.60
2022-10-13T13:03:02.414Z,10.23
2022-10-13T13:05:36.337Z,11.77
2022-10-13T13:08:30.045Z,8.63
2022-10-13T13:10:59.001Z,14.80
2022-10-13T13:13:26.514Z,13.30
2022-10-13T13:15:53.997Z,9.93
2022-10-13T13:18:26.596Z,8.57
2022-10-13T13:20:54.349Z,12.03
2022-10-13T13:23:23.418Z,9.10
2022-10-13T13:26:13.446Z,9.20
2022-10-13T13:28:49.143Z,6.67
2022-10-13T13:31:18.473Z,12.17
2022-10-13T13:33:46.382Z,9.97
2022-10-13T13:36:22.106Z,8.43
2022-10-13T13:38:49.582Z,9.50
2022-10-13T13:41:18.899Z,7.90
2022-10-13T13:43:46.118Z,11.40
2022-10-13T13:46:24.878Z,9.40
2022-10-13T13:48:51.992Z,10.33
2022-10-13T13:51:18.821Z,6.37
2022-10-13T13:53:45.877Z,7.60
2022-10-13T13:56:18.157Z,8.03
2022-10-13T13:58:45.070Z,9.30
2022-10-13T14:01:12.590Z,8.90
2022-10-13T14:03:39.487Z,12.00
2022-10-13T14:06:06.580Z,9.07
2022-10-13T14:08:35.461Z,13.03
2022-10-13T14:11:06.435Z,10.20
2022-10-13T14:13:34.362Z,11.03
2022-10-13T14:16:02.257Z,13.63
2022-10-13T14:18:29.982Z,8.63
2022-10-13T14:20:57.518Z,13.53
2022-10-13T14:23:24.336Z,12.23
2022-10-13T14:25:51.068Z,10.13
2022-10-13T14:28:18.590Z,8.80
2022-10-13T14:30:45.707Z,15.53
2022-10-13T14:33:12.477Z,12.93
2022-10-13T14:35:39.257Z,10.33
2022-10-13T14:38:06.166Z,8.80
2022-10-13T14:40:33.414Z,10.63
2022-10-13T14:43:00.242Z,7.07
2022-10-13T14:45:26.983Z,9.13
2022-10-13T14:47:53.729Z,10.97
2022-10-13T14:50:20.635Z,9.40
2022-10-13T14:52:47.407Z,9.83
2022-10-13T14:55:14.409Z,10.13
2022-10-13T14:57:41.364Z,15.27
2022-10-13T15:00:10.666Z,10.00
2022-10-13T15:02:37.447Z,9.63
2022-10-13T15:05:04.630Z,9.87
2022-10-13T15:07:31.475Z,16.13
2022-10-13T15:10:05.619Z,8.27
2022-10-13T15:12:33.336Z,12.50
2022-10-13T15:15:00.207Z,11.90
2022-10-13T15:17:27.978Z,6.83
2022-10-13T15:19:55.330Z,8.70
2022-10-13T15:22:22.498Z,11.17
2022-10-13T15:24:49.784Z,13.20
2022-10-13T15:27:16.674Z,10.43
2022-10-13T15:29:43.484Z,10.20
2022-10-13T15:32:18.750Z,8.00
2022-10-13T15:34:46.194Z,11.53
2022-10-13T15:37:13.224Z,8.30
2022-10-13T15:39:40.076Z,8.60
2022-10-13T15:42:06.919Z,11.33
2022-10-13T15:44:57.253Z,11.73
2022-10-13T15:47:23.734Z,9.30
2022-10-13T15:49:52.997Z,7.93
2022-10-13T15:52:20.178Z,9.00
2022-10-13T15:54:53.662Z,9.27
2022-10-13T15:57:20.381Z,12.33
2022-10-13T15:59:47.290Z,9.60
2022-10-13T16:02:18.318Z,12.33
2022-10-13T16:04:48.631Z,13.13
2022-10-13T16:07:15.479Z,11.37
2022-10-13T16:09:42.350Z,17.13
2022-10-13T16:12:09.161Z,11.83
2022-10-13T16:14:36.067Z,13.33
2022-10-13T16:17:03.948Z,11.73
2022-10-13T16:19:30.725Z,16.87
2022-10-13T16:21:57.914Z,21.47
2022-10-13T16:24:25.228Z,17.63
2022-10-13T16:26:52.455Z,18.03
2022-10-13T16:29:22.425Z,17.03
2022-10-13T16:31:49.513Z,18.83
2022-10-13T16:34:16.356Z,13.33
2022-10-13T16:36:43.787Z,15.80
2022-10-13T16:39:10.666Z,10.80
2022-10-13T16:41:38.842Z,9.60
2022-10-13T16:44:05.948Z,10.63
2022-10-13T16:46:33.532Z,10.90
2022-10-13T16:49:01.019Z,9.67
2022-10-13T16:51:28.278Z,12.87
2022-10-13T16:54:02.733Z,11.03
2022-10-13T16:56:31.229Z,13.33
2022-10-13T16:59:00.833Z,14.10
2022-10-13T17:01:28.928Z,12.83
2022-10-13T17:03:56.335Z,9.87
2022-10-13T17:06:25.402Z,9.27
2022-10-13T17:08:52.193Z,11.23
2022-10-13T17:11:24.681Z,14.17
2022-10-13T17:13:51.867Z,13.17
2022-10-13T17:16:20.510Z,14.87
2022-10-13T17:18:47.345Z,14.97
2022-10-13T17:21:17.104Z,10.83
2022-10-13T17:23:48.382Z,13.27
2022-10-13T17:26:17.039Z,15.17
2022-10-13T17:28:44.546Z,11.23
2022-10-13T17:31:13.287Z,12.10
2022-10-13T17:33:40.869Z,8.77
2022-10-13T17:36:20.524Z,10.17
2022-10-13T17:38:49.084Z,17.63
2022-10-13T17:41:16.667Z,14.40
2022-10-13T17:43:44.365Z,9.53
2022-10-13T17:46:39.467Z,10.13
2022-10-13T17:49:12.071Z,9.30
2022-10-13T17:51:42.781Z,9.17
2022-10-13T17:54:15.635Z,12.70
2022-10-13T17:56:43.493Z,14.60
2022-10-13T17:59:10.335Z,11.70
2022-10-13T18:01:37.575Z,11.30
2022-10-13T18:04:07.422Z,13.67
2022-10-13T18:06:39.869Z,14.77
2022-10-13T18:09:09.305Z,15.80
2022-10-13T18:11:39.457Z,20.67
2022-10-13T18:14:07.062Z,18.00
2022-10-13T18:16:34.521Z,11.73
2022-10-13T18:19:01.465Z,15.30
2022-10-13T18:21:29.250Z,15.87
2022-10-13T18:23:58.004Z,18.07
2022-10-13T18:26:26.068Z,16.27
2022-10-13T18:28:53.083Z,18.93
2022-10-13T18:31:23.042Z,18.87
2022-10-13T18:33:49.843Z,13.13
2022-10-13T18:36:20.329Z,16.87
2022-10-13T18:38:47.712Z,17.10
2022-10-13T18:41:15.665Z,16.53
2022-10-13T18:43:42.515Z,16.63
2022-10-13T18:46:09.398Z,15.40
2022-10-13T18:48:36.441Z,16.77
2022-10-13T18:51:15.503Z,13.37
2022-10-13T18:53:44.466Z,14.60
2022-10-13T18:56:20.393Z,8.97
2022-10-13T18:58:47.657Z,11.73
2022-10-13T19:01:17.859Z,9.80
2022-10-13T19:03:45.064Z,15.07
2022-10-13T19:06:13.969Z,12.67
2022-10-13T19:08:40.861Z,12.40
2022-10-13T19:11:19.126Z,11.47
2022-10-13T19:13:47.048Z,16.23
2022-10-13T19:16:16.724Z,14.17
2022-10-13T19:18:44.296Z,13.93
2022-10-13T19:21:12.025Z,17.23
2022-10-13T19:23:39.848Z,16.27
2022-10-13T19:26:18.621Z,12.40
2022-10-13T19:28:46.135Z,10.83
2022-10-13T19:31:14.681Z,15.37
2022-10-13T19:33:45.371Z,8.17
2022-10-13T19:36:20.471Z,13.67
2022-10-13T19:38:47.297Z,12.27
2022-10-13T19:41:14.403Z,9.67
2022-10-13T19:43:41.192Z,13.23
2022-10-13T19:46:08.909Z,12.80
2022-10-13T19:48:35.892Z,13.53
2022-10-13T19:51:06.684Z,19.00
2022-10-13T19:53:34.085Z,9.93
2022-10-13T19:56:01.076Z,14.13
2022-10-13T19:58:27.817Z,10.17
2022-10-13T20:00:54.780Z,12.70
2022-10-13T20:03:21.662Z,13.17
2022-10-13T20:05:48.480Z,14.30
2022-10-13T20:08:15.287Z,15.20
2022-10-13T20:10:43.325Z,16.50
2022-10-13T20:13:10.989Z,11.87
2022-10-13T20:15:43.774Z,13.70
2022-10-13T20:18:13.120Z,10.27
2022-10-13T20:20:41.611Z,12.80
2022-10-13T20:23:09.434Z,14.50
2022-10-13T20:25:38.050Z,11.77
2022-10-13T20:28:06.067Z,11.97
2022-10-13T20:30:33.466Z,13.07
2022-10-13T20:33:00.694Z,9.23
2022-10-13T20:35:27.788Z,12.90
2022-10-13T20:37:54.742Z,12.10
2022-10-13T20:40:22.063Z,17.57
2022-10-13T20:42:52.792Z,19.27
2022-10-13T20:45:19.639Z,21.33
2022-10-13T20:47:46.995Z,15.97
2022-10-13T20:50:14.363Z,18.93
2022-10-13T20:52:41.076Z,19.67
2022-10-13T20:55:08.273Z,18.40
2022-10-13T20:57:35.068Z,18.80
2022-10-13T21:00:02.218Z,17.60
2022-10-13T21:02:29.055Z,14.97
2022-10-13T21:04:55.903Z,17.60
2022-10-13T21:07:23.050Z,13.27
2022-10-13T21:09:53.606Z,15.83
2022-10-13T21:12:21.495Z,12.30
2022-10-13T21:14:48.500Z,14.23
2022-10-13T21:17:15.443Z,14.80
2022-10-13T21:19:42.212Z,12.40
2022-10-13T21:22:08.943Z,12.73
2022-10-13T21:24:35.918Z,9.00
2022-10-13T21:27:02.634Z,10.83
2022-10-13T21:29:29.800Z,10.90
2022-10-13T21:31:56.545Z,7.57
2022-10-13T21:34:23.274Z,8.50
2022-10-13T21:36:50.114Z,8.70
2022-10-13T21:39:16.954Z,10.60
2022-10-13T21:41:44.195Z,15.27
2022-10-13T21:44:14.189Z,10.23
2022-10-13T21:46:41.360Z,10.20
2022-10-13T21:49:08.170Z,11.40
2022-10-13T21:51:37.539Z,11.07
2022-10-13T21:54:12.756Z,9.57
2022-10-13T21:56:40.686Z,9.17
2022-10-13T21:59:07.767Z,8.37
2022-10-13T22:01:34.933Z,12.90
2022-10-13T22:04:02.682Z,9.43
2022-10-13T22:06:32.129Z,11.33
2022-10-13T22:09:00.918Z,10.77
2022-10-13T22:11:30.301Z,15.00
2022-10-13T22:13:58.343Z,12.83
2022-10-13T22:16:28.207Z,11.33
2022-10-13T22:18:56.697Z,10.33
2022-10-13T22:21:27.033Z,8.97
2022-10-13T22:24:00.681Z,9.93
2022-10-13T22:26:29.763Z,11.07
2022-10-13T22:28:58.165Z,8.97
2022-10-13T22:31:25.350Z,8.47
2022-10-13T22:33:53.773Z,8.60
2022-10-13T22:36:25.070Z,7.63
2022-10-13T22:38:54.905Z,7.13
2022-10-13T22:41:22.249Z,7.60
2022-10-13T22:43:53.856Z,7.83
2022-10-13T22:46:23.240Z,7.30
2022-10-13T22:48:50.538Z,7.97
2022-10-13T22:51:20.558Z,8.47
2022-10-13T22:53:48.299Z,8.00
2022-10-13T22:56:19.442Z,7.63
2022-10-13T22:58:53.940Z,9.10
2022-10-13T23:01:21.914Z,7.17
2022-10-13T23:03:50.246Z,8.27
2022-10-13T23:06:20.633Z,8.63
2022-10-13T23:08:47.915Z,9.93
2022-10-13T23:11:14.814Z,8.27
2022-10-13T23:13:41.969Z,13.10
2022-10-13T23:16:13.284Z,9.33
2022-10-13T23:18:40.793Z,9.17
2022-10-13T23:21:09.221Z,12.87
2022-10-13T23:23:36.546Z,12.27
2022-10-13T23:26:09.062Z,13.20
2022-10-13T23:28:36.426Z,8.97
2022-10-13T23:31:06.298Z,9.33
2022-10-13T23:33:33.695Z,10.77
2022-10-13T23:36:02.047Z,10.27
2022-10-13T23:38:30.876Z,10.43
2022-10-13T23:41:08.895Z,11.03
2022-10-13T23:43:35.920Z,12.03
2022-10-13T23:46:03.171Z,10.03
2022-10-13T23:48:30.100Z,11.13
2022-10-13T23:50:57.237Z,9.20
2022-10-13T23:53:24.546Z,10.40
2022-10-13T23:55:51.231Z,13.80
2022-10-13T23:58:18.060Z,11.53
